sensor_id;sensor_type;location;lat;lon;timestamp;temperature;humidity
52181;DHT22;38158;53.338;6.514;2023-04-15T00:00:27;6.10;99.90
52181;DHT22;38158;53.338;6.514;2023-04-15T00:02:53;5.90;99.90
52181;DHT22;38158;53.338;6.514;2023-04-15T00:05:20;5.90;99.90
52181;DHT22;38158;53.338;6.514;2023-04-15T00:07:46;5.80;99.90
52181;DHT22;38158;53.338;6.514;2023-04-15T00:10:12;5.80;99.90
52181;DHT22;38158;53.338;6.514;2023-04-15T00:12:39;5.70;99.90
52181;DHT22;38158;53.338;6.514;2023-04-15T00:15:06;5.70;99.90
52181;DHT22;38158;53.338;6.514;2023-04-15T00:17:32;5.70;99.90
52181;DHT22;38158;53.338;6.514;2023-04-15T00:19:58;5.70;99.90
52181;DHT22;38158;53.338;6.514;2023-04-15T00:22:25;5.60;99.90
52181;DHT22;38158;53.338;6.514;2023-04-15T00:24:52;5.60;99.90
52181;DHT22;38158;53.338;6.514;2023-04-15T00:27:18;5.50;99.90
52181;DHT22;38158;53.338;6.514;2023-04-15T00:29:44;5.50;99.90
52181;DHT22;38158;53.338;6.514;2023-04-15T00:32:10;5.50;99.90
52181;DHT22;38158;53.338;6.514;2023-04-15T00:34:36;5.60;99.90
52181;DHT22;38158;53.338;6.514;2023-04-15T00:37:02;5.60;99.90
52181;DHT22;38158;53.338;6.514;2023-04-15T00:39:27;5.60;99.90
52181;DHT22;38158;53.338;6.514;2023-04-15T00:41:54;5.70;99.90
52181;DHT22;38158;53.338;6.514;2023-04-15T00:44:20;5.60;99.90
52181;DHT22;38158;53.338;6.514;2023-04-15T00:46:47;5.60;99.90
52181;DHT22;38158;53.338;6.514;2023-04-15T00:49:15;5.70;99.90
52181;DHT22;38158;53.338;6.514;2023-04-15T00:51:42;5.60;99.90
52181;DHT22;38158;53.338;6.514;2023-04-15T00:54:09;5.60;99.90
52181;DHT22;38158;53.338;6.514;2023-04-15T00:56:36;6.00;99.90
52181;DHT22;38158;53.338;6.514;2023-04-15T00:59:05;5.50;99.90
52181;DHT22;38158;53.338;6.514;2023-04-15T01:01:36;5.40;99.90
52181;DHT22;38158;53.338;6.514;2023-04-15T01:04:03;5.40;99.90
52181;DHT22;38158;53.338;6.514;2023-04-15T01:06:30;5.40;99.90
52181;DHT22;38158;53.338;6.514;2023-04-15T01:08:57;5.40;99.90
52181;DHT22;38158;53.338;6.514;2023-04-15T01:11:23;5.40;99.90
52181;DHT22;38158;53.338;6.514;2023-04-15T01:13:50;5.50;99.90
52181;DHT22;38158;53.338;6.514;2023-04-15T01:16:17;5.40;99.90
52181;DHT22;38158;53.338;6.514;2023-04-15T01:18:43;5.30;99.90
52181;DHT22;38158;53.338;6.514;2023-04-15T01:21:09;5.20;99.90
52181;DHT22;38158;53.338;6.514;2023-04-15T01:23:36;5.20;99.90
52181;DHT22;38158;53.338;6.514;2023-04-15T01:26:03;5.20;99.90
52181;DHT22;38158;53.338;6.514;2023-04-15T01:28:28;5.20;99.90
52181;DHT22;38158;53.338;6.514;2023-04-15T01:31:11;5.10;99.90
52181;DHT22;38158;53.338;6.514;2023-04-15T01:33:39;5.10;99.90
52181;DHT22;38158;53.338;6.514;2023-04-15T01:36:06;5.10;99.90
52181;DHT22;38158;53.338;6.514;2023-04-15T01:38:33;5.10;99.90
52181;DHT22;38158;53.338;6.514;2023-04-15T01:40:59;5.00;99.90
52181;DHT22;38158;53.338;6.514;2023-04-15T01:43:25;5.00;99.90
52181;DHT22;38158;53.338;6.514;2023-04-15T01:45:51;5.00;99.90
52181;DHT22;38158;53.338;6.514;2023-04-15T01:48:17;5.00;99.90
52181;DHT22;38158;53.338;6.514;2023-04-15T01:50:43;5.10;99.90
52181;DHT22;38158;53.338;6.514;2023-04-15T01:53:09;5.00;99.90
52181;DHT22;38158;53.338;6.514;2023-04-15T01:55:35;5.00;99.90
52181;DHT22;38158;53.338;6.514;2023-04-15T01:58:01;5.00;99.90
52181;DHT22;38158;53.338;6.514;2023-04-15T02:00:27;5.30;99.90
52181;DHT22;38158;53.338;6.514;2023-04-15T02:02:53;5.00;99.90
52181;DHT22;38158;53.338;6.514;2023-04-15T02:05:19;4.90;99.90
52181;DHT22;38158;53.338;6.514;2023-04-15T02:07:44;4.90;99.90
52181;DHT22;38158;53.338;6.514;2023-04-15T02:10:11;4.90;99.90
52181;DHT22;38158;53.338;6.514;2023-04-15T02:12:40;4.90;99.90
52181;DHT22;38158;53.338;6.514;2023-04-15T02:15:07;4.90;99.90
52181;DHT22;38158;53.338;6.514;2023-04-15T02:17:33;5.00;99.90
52181;DHT22;38158;53.338;6.514;2023-04-15T02:20:00;5.00;99.90
52181;DHT22;38158;53.338;6.514;2023-04-15T02:22:26;4.90;99.90
52181;DHT22;38158;53.338;6.514;2023-04-15T02:24:52;4.90;99.90
52181;DHT22;38158;53.338;6.514;2023-04-15T02:27:18;4.90;99.90
52181;DHT22;38158;53.338;6.514;2023-04-15T02:29:44;4.90;99.90
52181;DHT22;38158;53.338;6.514;2023-04-15T02:32:11;4.90;99.90
52181;DHT22;38158;53.338;6.514;2023-04-15T02:34:38;4.90;99.90
52181;DHT22;38158;53.338;6.514;2023-04-15T02:37:09;4.90;99.90
52181;DHT22;38158;53.338;6.514;2023-04-15T02:39:35;4.90;99.90
52181;DHT22;38158;53.338;6.514;2023-04-15T02:42:01;4.80;99.90
52181;DHT22;38158;53.338;6.514;2023-04-15T02:44:27;4.80;99.90
52181;DHT22;38158;53.338;6.514;2023-04-15T02:46:53;4.90;99.90
52181;DHT22;38158;53.338;6.514;2023-04-15T02:49:22;4.80;99.90
52181;DHT22;38158;53.338;6.514;2023-04-15T02:51:48;4.70;99.90
52181;DHT22;38158;53.338;6.514;2023-04-15T02:54:21;4.70;99.90
52181;DHT22;38158;53.338;6.514;2023-04-15T02:56:50;4.70;99.90
52181;DHT22;38158;53.338;6.514;2023-04-15T02:59:19;4.70;99.90
52181;DHT22;38158;53.338;6.514;2023-04-15T03:01:45;4.60;99.90
52181;DHT22;38158;53.338;6.514;2023-04-15T03:04:11;4.60;99.90
52181;DHT22;38158;53.338;6.514;2023-04-15T03:06:37;4.60;99.90
52181;DHT22;38158;53.338;6.514;2023-04-15T03:09:03;4.70;99.90
52181;DHT22;38158;53.338;6.514;2023-04-15T03:11:29;4.60;99.90
52181;DHT22;38158;53.338;6.514;2023-04-15T03:13:56;4.60;99.90
52181;DHT22;38158;53.338;6.514;2023-04-15T03:16:21;4.50;99.90
52181;DHT22;38158;53.338;6.514;2023-04-15T03:18:47;4.50;99.90
52181;DHT22;38158;53.338;6.514;2023-04-15T03:21:13;4.50;99.90
52181;DHT22;38158;53.338;6.514;2023-04-15T03:23:38;4.50;99.90
52181;DHT22;38158;53.338;6.514;2023-04-15T03:26:04;4.50;99.90
52181;DHT22;38158;53.338;6.514;2023-04-15T03:28:30;4.70;99.90
52181;DHT22;38158;53.338;6.514;2023-04-15T03:30:57;4.50;99.90
52181;DHT22;38158;53.338;6.514;2023-04-15T03:33:23;4.50;99.90
52181;DHT22;38158;53.338;6.514;2023-04-15T03:35:50;4.40;99.90
52181;DHT22;38158;53.338;6.514;2023-04-15T03:38:16;5.40;99.90
52181;DHT22;38158;53.338;6.514;2023-04-15T03:40:42;4.40;99.90
52181;DHT22;38158;53.338;6.514;2023-04-15T03:43:08;4.40;99.90
52181;DHT22;38158;53.338;6.514;2023-04-15T03:45:34;4.30;99.90
52181;DHT22;38158;53.338;6.514;2023-04-15T03:48:00;4.40;99.90
52181;DHT22;38158;53.338;6.514;2023-04-15T03:50:26;4.30;99.90
52181;DHT22;38158;53.338;6.514;2023-04-15T03:52:52;4.30;99.90
52181;DHT22;38158;53.338;6.514;2023-04-15T03:55:18;4.30;99.90
52181;DHT22;38158;53.338;6.514;2023-04-15T03:57:44;4.30;99.90
52181;DHT22;38158;53.338;6.514;2023-04-15T04:00:11;4.30;99.90
52181;DHT22;38158;53.338;6.514;2023-04-15T04:02:37;4.20;99.90
52181;DHT22;38158;53.338;6.514;2023-04-15T04:05:03;4.20;99.90
52181;DHT22;38158;53.338;6.514;2023-04-15T04:07:29;4.20;99.90
52181;DHT22;38158;53.338;6.514;2023-04-15T04:09:56;4.20;99.90
52181;DHT22;38158;53.338;6.514;2023-04-15T04:12:22;4.20;99.90
52181;DHT22;38158;53.338;6.514;2023-04-15T04:14:47;4.10;99.90
52181;DHT22;38158;53.338;6.514;2023-04-15T04:17:13;4.20;99.90
52181;DHT22;38158;53.338;6.514;2023-04-15T04:19:39;4.20;99.90
52181;DHT22;38158;53.338;6.514;2023-04-15T04:22:05;4.20;99.90
52181;DHT22;38158;53.338;6.514;2023-04-15T04:24:30;4.20;99.90
52181;DHT22;38158;53.338;6.514;2023-04-15T04:26:56;4.10;99.90
52181;DHT22;38158;53.338;6.514;2023-04-15T04:29:22;4.10;99.90
52181;DHT22;38158;53.338;6.514;2023-04-15T04:31:48;4.10;99.90
52181;DHT22;38158;53.338;6.514;2023-04-15T04:34:15;4.10;99.90
52181;DHT22;38158;53.338;6.514;2023-04-15T04:36:40;4.10;99.90
52181;DHT22;38158;53.338;6.514;2023-04-15T04:39:06;4.20;99.90
52181;DHT22;38158;53.338;6.514;2023-04-15T04:41:32;4.80;99.90
52181;DHT22;38158;53.338;6.514;2023-04-15T04:43:58;4.20;99.90
52181;DHT22;38158;53.338;6.514;2023-04-15T04:46:24;4.20;99.90
52181;DHT22;38158;53.338;6.514;2023-04-15T04:48:49;4.20;99.90
52181;DHT22;38158;53.338;6.514;2023-04-15T04:51:15;4.50;99.90
52181;DHT22;38158;53.338;6.514;2023-04-15T04:53:41;4.20;99.90
52181;DHT22;38158;53.338;6.514;2023-04-15T04:56:08;4.20;99.90
52181;DHT22;38158;53.338;6.514;2023-04-15T04:58:33;4.20;99.90
52181;DHT22;38158;53.338;6.514;2023-04-15T05:00:59;4.20;99.90
52181;DHT22;38158;53.338;6.514;2023-04-15T05:03:25;4.50;99.90
52181;DHT22;38158;53.338;6.514;2023-04-15T05:05:51;4.50;99.90
52181;DHT22;38158;53.338;6.514;2023-04-15T05:08:17;4.20;99.90
52181;DHT22;38158;53.338;6.514;2023-04-15T05:10:43;4.80;99.90
52181;DHT22;38158;53.338;6.514;2023-04-15T05:13:08;4.10;99.90
52181;DHT22;38158;53.338;6.514;2023-04-15T05:15:34;4.10;99.90
52181;DHT22;38158;53.338;6.514;2023-04-15T05:18:01;4.00;99.90
52181;DHT22;38158;53.338;6.514;2023-04-15T05:20:27;4.00;99.90
52181;DHT22;38158;53.338;6.514;2023-04-15T05:22:53;4.10;99.90
52181;DHT22;38158;53.338;6.514;2023-04-15T05:25:19;4.10;99.90
52181;DHT22;38158;53.338;6.514;2023-04-15T05:27:44;4.20;99.90
52181;DHT22;38158;53.338;6.514;2023-04-15T05:30:10;4.20;99.90
52181;DHT22;38158;53.338;6.514;2023-04-15T05:32:36;4.50;99.90
52181;DHT22;38158;53.338;6.514;2023-04-15T05:35:02;4.20;99.90
52181;DHT22;38158;53.338;6.514;2023-04-15T05:37:28;4.30;99.90
52181;DHT22;38158;53.338;6.514;2023-04-15T05:39:53;4.30;99.90
52181;DHT22;38158;53.338;6.514;2023-04-15T05:42:19;4.40;99.90
52181;DHT22;38158;53.338;6.514;2023-04-15T05:44:45;4.40;99.90
52181;DHT22;38158;53.338;6.514;2023-04-15T05:47:11;4.50;99.90
52181;DHT22;38158;53.338;6.514;2023-04-15T05:49:36;4.60;99.90
52181;DHT22;38158;53.338;6.514;2023-04-15T05:52:02;4.80;99.90
52181;DHT22;38158;53.338;6.514;2023-04-15T05:54:28;5.00;99.90
52181;DHT22;38158;53.338;6.514;2023-04-15T05:56:54;5.20;99.90
52181;DHT22;38158;53.338;6.514;2023-04-15T05:59:20;5.50;99.90
52181;DHT22;38158;53.338;6.514;2023-04-15T06:01:46;5.70;99.90
52181;DHT22;38158;53.338;6.514;2023-04-15T06:04:12;5.90;99.90
52181;DHT22;38158;53.338;6.514;2023-04-15T06:06:38;6.10;99.90
52181;DHT22;38158;53.338;6.514;2023-04-15T06:09:03;6.20;99.90
52181;DHT22;38158;53.338;6.514;2023-04-15T06:11:29;6.40;99.90
52181;DHT22;38158;53.338;6.514;2023-04-15T06:13:55;6.60;99.90
52181;DHT22;38158;53.338;6.514;2023-04-15T06:16:21;6.60;99.90
52181;DHT22;38158;53.338;6.514;2023-04-15T06:18:47;6.70;99.90
52181;DHT22;38158;53.338;6.514;2023-04-15T06:21:14;6.80;99.90
52181;DHT22;38158;53.338;6.514;2023-04-15T06:23:40;6.90;99.90
52181;DHT22;38158;53.338;6.514;2023-04-15T06:26:06;7.00;99.90
52181;DHT22;38158;53.338;6.514;2023-04-15T06:28:32;7.10;99.90
52181;DHT22;38158;53.338;6.514;2023-04-15T06:30:58;7.20;99.90
52181;DHT22;38158;53.338;6.514;2023-04-15T06:33:23;7.20;99.90
52181;DHT22;38158;53.338;6.514;2023-04-15T06:35:49;7.30;99.90
52181;DHT22;38158;53.338;6.514;2023-04-15T06:38:15;7.40;99.90
52181;DHT22;38158;53.338;6.514;2023-04-15T06:40:41;7.40;99.90
52181;DHT22;38158;53.338;6.514;2023-04-15T06:43:07;7.50;99.90
52181;DHT22;38158;53.338;6.514;2023-04-15T06:45:33;7.60;99.90
52181;DHT22;38158;53.338;6.514;2023-04-15T06:47:59;7.60;99.90
52181;DHT22;38158;53.338;6.514;2023-04-15T06:50:25;7.70;99.90
52181;DHT22;38158;53.338;6.514;2023-04-15T06:52:53;7.80;99.90
52181;DHT22;38158;53.338;6.514;2023-04-15T06:55:19;7.80;99.90
52181;DHT22;38158;53.338;6.514;2023-04-15T06:57:44;7.90;99.90
52181;DHT22;38158;53.338;6.514;2023-04-15T07:00:10;7.90;99.90
52181;DHT22;38158;53.338;6.514;2023-04-15T07:02:36;8.00;99.90
52181;DHT22;38158;53.338;6.514;2023-04-15T07:05:03;8.00;99.90
52181;DHT22;38158;53.338;6.514;2023-04-15T07:07:29;8.00;99.90
52181;DHT22;38158;53.338;6.514;2023-04-15T07:09:54;8.00;99.90
52181;DHT22;38158;53.338;6.514;2023-04-15T07:12:20;8.00;99.90
52181;DHT22;38158;53.338;6.514;2023-04-15T07:14:46;8.10;99.90
52181;DHT22;38158;53.338;6.514;2023-04-15T07:17:12;8.10;99.90
52181;DHT22;38158;53.338;6.514;2023-04-15T07:19:40;8.10;99.90
52181;DHT22;38158;53.338;6.514;2023-04-15T07:22:06;8.10;99.90
52181;DHT22;38158;53.338;6.514;2023-04-15T07:24:32;8.10;99.90
52181;DHT22;38158;53.338;6.514;2023-04-15T07:26:58;8.10;99.90
52181;DHT22;38158;53.338;6.514;2023-04-15T07:29:24;8.20;99.90
52181;DHT22;38158;53.338;6.514;2023-04-15T07:31:50;8.20;99.90
52181;DHT22;38158;53.338;6.514;2023-04-15T07:34:17;8.30;99.90
52181;DHT22;38158;53.338;6.514;2023-04-15T07:36:43;8.30;99.90
52181;DHT22;38158;53.338;6.514;2023-04-15T07:39:09;8.30;99.90
52181;DHT22;38158;53.338;6.514;2023-04-15T07:41:34;8.30;99.90
52181;DHT22;38158;53.338;6.514;2023-04-15T07:44:00;8.30;99.90
52181;DHT22;38158;53.338;6.514;2023-04-15T07:46:26;8.30;99.90
52181;DHT22;38158;53.338;6.514;2023-04-15T07:48:52;8.30;99.90
52181;DHT22;38158;53.338;6.514;2023-04-15T07:51:19;8.40;99.90
52181;DHT22;38158;53.338;6.514;2023-04-15T07:53:45;8.30;99.90
52181;DHT22;38158;53.338;6.514;2023-04-15T07:56:11;8.30;99.90
52181;DHT22;38158;53.338;6.514;2023-04-15T07:58:37;8.40;99.90
52181;DHT22;38158;53.338;6.514;2023-04-15T08:01:03;8.30;99.90
52181;DHT22;38158;53.338;6.514;2023-04-15T08:03:29;8.30;99.90
52181;DHT22;38158;53.338;6.514;2023-04-15T08:05:55;8.30;99.90
52181;DHT22;38158;53.338;6.514;2023-04-15T08:08:22;8.20;99.90
52181;DHT22;38158;53.338;6.514;2023-04-15T08:10:48;8.20;99.90
52181;DHT22;38158;53.338;6.514;2023-04-15T08:13:14;8.20;99.90
52181;DHT22;38158;53.338;6.514;2023-04-15T08:15:40;8.20;99.90
52181;DHT22;38158;53.338;6.514;2023-04-15T08:18:06;8.20;99.90
52181;DHT22;38158;53.338;6.514;2023-04-15T08:20:32;8.20;99.90
52181;DHT22;38158;53.338;6.514;2023-04-15T08:22:58;8.20;99.90
52181;DHT22;38158;53.338;6.514;2023-04-15T08:25:23;8.20;99.90
52181;DHT22;38158;53.338;6.514;2023-04-15T08:27:49;8.20;99.90
52181;DHT22;38158;53.338;6.514;2023-04-15T08:30:15;8.20;99.90
52181;DHT22;38158;53.338;6.514;2023-04-15T08:32:44;8.30;99.90
52181;DHT22;38158;53.338;6.514;2023-04-15T08:35:10;8.30;99.90
52181;DHT22;38158;53.338;6.514;2023-04-15T08:37:36;8.40;99.90
52181;DHT22;38158;53.338;6.514;2023-04-15T08:40:02;8.40;99.90
52181;DHT22;38158;53.338;6.514;2023-04-15T08:42:30;8.50;99.90
52181;DHT22;38158;53.338;6.514;2023-04-15T08:45:00;8.40;99.90
52181;DHT22;38158;53.338;6.514;2023-04-15T08:47:29;8.30;99.90
52181;DHT22;38158;53.338;6.514;2023-04-15T08:49:57;8.30;99.90
52181;DHT22;38158;53.338;6.514;2023-04-15T08:52:26;8.30;99.90
52181;DHT22;38158;53.338;6.514;2023-04-15T08:54:56;8.30;99.90
52181;DHT22;38158;53.338;6.514;2023-04-15T08:57:26;8.20;99.90
52181;DHT22;38158;53.338;6.514;2023-04-15T08:59:55;8.30;99.90
52181;DHT22;38158;53.338;6.514;2023-04-15T09:02:21;8.30;99.90
52181;DHT22;38158;53.338;6.514;2023-04-15T09:04:47;8.30;99.90
52181;DHT22;38158;53.338;6.514;2023-04-15T09:07:13;8.20;99.90
52181;DHT22;38158;53.338;6.514;2023-04-15T09:09:39;8.20;99.90
52181;DHT22;38158;53.338;6.514;2023-04-15T09:12:07;8.20;99.90
52181;DHT22;38158;53.338;6.514;2023-04-15T09:14:33;8.20;99.90
52181;DHT22;38158;53.338;6.514;2023-04-15T09:17:03;8.20;99.90
52181;DHT22;38158;53.338;6.514;2023-04-15T09:19:30;8.20;99.90
52181;DHT22;38158;53.338;6.514;2023-04-15T09:21:58;8.30;99.90
52181;DHT22;38158;53.338;6.514;2023-04-15T09:24:27;8.60;99.90
52181;DHT22;38158;53.338;6.514;2023-04-15T09:26:59;8.60;99.90
52181;DHT22;38158;53.338;6.514;2023-04-15T09:29:25;8.80;99.90
52181;DHT22;38158;53.338;6.514;2023-04-15T09:31:51;8.90;99.90
52181;DHT22;38158;53.338;6.514;2023-04-15T09:34:17;9.00;99.90
52181;DHT22;38158;53.338;6.514;2023-04-15T09:39:12;9.10;99.90
52181;DHT22;38158;53.338;6.514;2023-04-15T09:41:38;9.20;99.90
52181;DHT22;38158;53.338;6.514;2023-04-15T09:44:05;9.10;99.90
52181;DHT22;38158;53.338;6.514;2023-04-15T09:46:43;9.10;99.90
52181;DHT22;38158;53.338;6.514;2023-04-15T09:49:10;9.30;99.90
52181;DHT22;38158;53.338;6.514;2023-04-15T09:51:36;9.10;99.90
52181;DHT22;38158;53.338;6.514;2023-04-15T09:54:02;9.10;99.90
52181;DHT22;38158;53.338;6.514;2023-04-15T09:56:37;9.20;99.90
52181;DHT22;38158;53.338;6.514;2023-04-15T09:59:09;9.20;99.90
52181;DHT22;38158;53.338;6.514;2023-04-15T10:01:35;9.30;99.90
52181;DHT22;38158;53.338;6.514;2023-04-15T10:04:05;9.40;99.90
52181;DHT22;38158;53.338;6.514;2023-04-15T10:06:31;9.40;99.90
52181;DHT22;38158;53.338;6.514;2023-04-15T10:08:57;9.40;99.90
52181;DHT22;38158;53.338;6.514;2023-04-15T10:11:24;9.40;99.90
52181;DHT22;38158;53.338;6.514;2023-04-15T10:13:50;9.40;99.90
52181;DHT22;38158;53.338;6.514;2023-04-15T10:16:19;9.40;99.90
52181;DHT22;38158;53.338;6.514;2023-04-15T10:18:47;9.40;99.90
52181;DHT22;38158;53.338;6.514;2023-04-15T10:21:15;9.50;99.90
52181;DHT22;38158;53.338;6.514;2023-04-15T10:23:44;9.60;99.90
52181;DHT22;38158;53.338;6.514;2023-04-15T10:26:10;9.60;99.90
52181;DHT22;38158;53.338;6.514;2023-04-15T10:28:37;9.60;99.90
52181;DHT22;38158;53.338;6.514;2023-04-15T10:31:04;9.70;99.90
52181;DHT22;38158;53.338;6.514;2023-04-15T10:33:30;9.70;99.90
52181;DHT22;38158;53.338;6.514;2023-04-15T10:35:56;9.70;99.90
52181;DHT22;38158;53.338;6.514;2023-04-15T10:38:42;9.60;99.90
52181;DHT22;38158;53.338;6.514;2023-04-15T10:41:25;9.50;99.90
52181;DHT22;38158;53.338;6.514;2023-04-15T10:44:02;9.40;99.90
52181;DHT22;38158;53.338;6.514;2023-04-15T10:51:44;9.40;99.90
52181;DHT22;38158;53.338;6.514;2023-04-15T10:54:30;9.40;99.90
52181;DHT22;38158;53.338;6.514;2023-04-15T10:59:35;9.50;99.90
52181;DHT22;38158;53.338;6.514;2023-04-15T11:02:03;9.50;99.90
52181;DHT22;38158;53.338;6.514;2023-04-15T11:04:58;9.60;99.90
52181;DHT22;38158;53.338;6.514;2023-04-15T11:07:46;9.70;99.90
52181;DHT22;38158;53.338;6.514;2023-04-15T11:12:39;9.90;99.90
52181;DHT22;38158;53.338;6.514;2023-04-15T11:18:09;9.80;99.90
52181;DHT22;38158;53.338;6.514;2023-04-15T11:20:36;9.70;99.90
52181;DHT22;38158;53.338;6.514;2023-04-15T11:23:03;9.70;99.90
52181;DHT22;38158;53.338;6.514;2023-04-15T11:25:31;9.70;99.90
52181;DHT22;38158;53.338;6.514;2023-04-15T11:27:58;9.60;99.90
52181;DHT22;38158;53.338;6.514;2023-04-15T11:30:26;9.50;99.90
52181;DHT22;38158;53.338;6.514;2023-04-15T11:32:54;9.40;99.90
52181;DHT22;38158;53.338;6.514;2023-04-15T11:35:22;9.40;99.90
52181;DHT22;38158;53.338;6.514;2023-04-15T11:37:48;9.40;99.90
52181;DHT22;38158;53.338;6.514;2023-04-15T11:40:16;9.30;99.90
52181;DHT22;38158;53.338;6.514;2023-04-15T11:42:44;9.20;99.90
52181;DHT22;38158;53.338;6.514;2023-04-15T11:45:14;9.20;99.90
52181;DHT22;38158;53.338;6.514;2023-04-15T11:47:41;9.20;99.90
52181;DHT22;38158;53.338;6.514;2023-04-15T11:50:20;9.20;99.90
52181;DHT22;38158;53.338;6.514;2023-04-15T11:52:56;9.20;99.90
52181;DHT22;38158;53.338;6.514;2023-04-15T11:55:23;9.30;99.90
52181;DHT22;38158;53.338;6.514;2023-04-15T11:57:51;9.20;99.90
52181;DHT22;38158;53.338;6.514;2023-04-15T12:00:30;9.20;99.90
52181;DHT22;38158;53.338;6.514;2023-04-15T12:13:55;9.20;99.90
52181;DHT22;38158;53.338;6.514;2023-04-15T12:16:22;9.30;99.90
52181;DHT22;38158;53.338;6.514;2023-04-15T12:18:53;9.30;99.90
52181;DHT22;38158;53.338;6.514;2023-04-15T12:21:24;9.40;99.90
52181;DHT22;38158;53.338;6.514;2023-04-15T12:23:51;9.40;99.90
52181;DHT22;38158;53.338;6.514;2023-04-15T12:26:24;9.40;99.90
52181;DHT22;38158;53.338;6.514;2023-04-15T12:28:53;9.30;99.90
52181;DHT22;38158;53.338;6.514;2023-04-15T12:31:20;9.30;99.90
52181;DHT22;38158;53.338;6.514;2023-04-15T12:33:47;9.30;99.90
52181;DHT22;38158;53.338;6.514;2023-04-15T12:36:14;9.30;99.90
52181;DHT22;38158;53.338;6.514;2023-04-15T12:38:40;9.20;99.90
52181;DHT22;38158;53.338;6.514;2023-04-15T12:41:05;9.20;99.90
52181;DHT22;38158;53.338;6.514;2023-04-15T12:43:31;9.10;99.90
52181;DHT22;38158;53.338;6.514;2023-04-15T12:45:56;9.10;99.90
52181;DHT22;38158;53.338;6.514;2023-04-15T12:48:22;9.10;99.90
52181;DHT22;38158;53.338;6.514;2023-04-15T12:50:48;9.10;99.90
52181;DHT22;38158;53.338;6.514;2023-04-15T12:53:13;9.10;99.90
52181;DHT22;38158;53.338;6.514;2023-04-15T12:55:39;9.00;99.90
52181;DHT22;38158;53.338;6.514;2023-04-15T12:58:05;9.10;99.90
52181;DHT22;38158;53.338;6.514;2023-04-15T13:00:33;9.10;99.90
52181;DHT22;38158;53.338;6.514;2023-04-15T13:02:59;9.20;99.90
52181;DHT22;38158;53.338;6.514;2023-04-15T13:05:24;9.10;99.90
52181;DHT22;38158;53.338;6.514;2023-04-15T13:07:50;9.10;99.90
52181;DHT22;38158;53.338;6.514;2023-04-15T13:10:16;9.10;99.90
52181;DHT22;38158;53.338;6.514;2023-04-15T13:12:41;9.00;99.90
52181;DHT22;38158;53.338;6.514;2023-04-15T13:15:08;9.10;99.90
52181;DHT22;38158;53.338;6.514;2023-04-15T13:17:35;9.00;99.90
52181;DHT22;38158;53.338;6.514;2023-04-15T13:20:01;8.90;99.90
52181;DHT22;38158;53.338;6.514;2023-04-15T13:22:26;8.80;99.90
52181;DHT22;38158;53.338;6.514;2023-04-15T13:24:52;8.80;99.90
52181;DHT22;38158;53.338;6.514;2023-04-15T13:27:18;8.70;99.90
52181;DHT22;38158;53.338;6.514;2023-04-15T13:29:43;8.70;99.90
52181;DHT22;38158;53.338;6.514;2023-04-15T13:32:09;8.60;99.90
52181;DHT22;38158;53.338;6.514;2023-04-15T13:34:35;8.70;99.90
52181;DHT22;38158;53.338;6.514;2023-04-15T13:37:07;8.70;99.90
52181;DHT22;38158;53.338;6.514;2023-04-15T13:39:33;8.70;99.90
52181;DHT22;38158;53.338;6.514;2023-04-15T13:41:59;8.70;99.90
52181;DHT22;38158;53.338;6.514;2023-04-15T13:44:25;8.60;99.90
52181;DHT22;38158;53.338;6.514;2023-04-15T13:46:51;8.60;99.90
52181;DHT22;38158;53.338;6.514;2023-04-15T13:49:17;8.60;99.90
52181;DHT22;38158;53.338;6.514;2023-04-15T13:51:42;8.60;99.90
52181;DHT22;38158;53.338;6.514;2023-04-15T13:54:08;8.60;99.90
52181;DHT22;38158;53.338;6.514;2023-04-15T13:56:33;8.70;99.90
52181;DHT22;38158;53.338;6.514;2023-04-15T13:58:59;8.70;99.90
52181;DHT22;38158;53.338;6.514;2023-04-15T14:01:27;8.60;99.90
52181;DHT22;38158;53.338;6.514;2023-04-15T14:03:52;8.60;99.90
52181;DHT22;38158;53.338;6.514;2023-04-15T14:06:18;8.60;99.90
52181;DHT22;38158;53.338;6.514;2023-04-15T14:08:44;8.60;99.90
52181;DHT22;38158;53.338;6.514;2023-04-15T14:11:11;9.10;99.90
52181;DHT22;38158;53.338;6.514;2023-04-15T14:13:36;8.60;99.90
52181;DHT22;38158;53.338;6.514;2023-04-15T14:16:02;8.60;99.90
52181;DHT22;38158;53.338;6.514;2023-04-15T14:18:28;8.50;99.90
52181;DHT22;38158;53.338;6.514;2023-04-15T14:20:55;8.50;99.90
52181;DHT22;38158;53.338;6.514;2023-04-15T14:23:21;8.30;99.90
52181;DHT22;38158;53.338;6.514;2023-04-15T14:25:47;8.60;99.90
52181;DHT22;38158;53.338;6.514;2023-04-15T14:28:13;8.40;99.90
52181;DHT22;38158;53.338;6.514;2023-04-15T14:30:39;8.40;99.90
52181;DHT22;38158;53.338;6.514;2023-04-15T14:33:04;8.30;99.90
52181;DHT22;38158;53.338;6.514;2023-04-15T14:35:30;8.30;99.90
52181;DHT22;38158;53.338;6.514;2023-04-15T14:37:57;8.60;99.90
52181;DHT22;38158;53.338;6.514;2023-04-15T14:40:22;8.50;99.90
52181;DHT22;38158;53.338;6.514;2023-04-15T14:42:48;8.30;99.90
52181;DHT22;38158;53.338;6.514;2023-04-15T14:45:14;8.30;99.90
52181;DHT22;38158;53.338;6.514;2023-04-15T14:47:39;8.30;99.90
52181;DHT22;38158;53.338;6.514;2023-04-15T14:50:05;8.20;99.90
52181;DHT22;38158;53.338;6.514;2023-04-15T14:52:31;8.10;99.90
52181;DHT22;38158;53.338;6.514;2023-04-15T14:55:07;8.10;99.90
52181;DHT22;38158;53.338;6.514;2023-04-15T14:57:35;8.10;99.90
52181;DHT22;38158;53.338;6.514;2023-04-15T15:00:02;8.10;99.90
52181;DHT22;38158;53.338;6.514;2023-04-15T15:02:28;8.00;99.90
52181;DHT22;38158;53.338;6.514;2023-04-15T15:04:54;8.00;99.90
52181;DHT22;38158;53.338;6.514;2023-04-15T15:07:21;8.00;99.90
52181;DHT22;38158;53.338;6.514;2023-04-15T15:09:46;8.00;99.90
52181;DHT22;38158;53.338;6.514;2023-04-15T15:12:12;8.00;99.90
52181;DHT22;38158;53.338;6.514;2023-04-15T15:14:38;8.00;99.90
52181;DHT22;38158;53.338;6.514;2023-04-15T15:17:03;8.00;99.90
52181;DHT22;38158;53.338;6.514;2023-04-15T15:19:29;8.00;99.90
52181;DHT22;38158;53.338;6.514;2023-04-15T15:21:55;8.00;99.90
52181;DHT22;38158;53.338;6.514;2023-04-15T15:24:20;7.90;99.90
52181;DHT22;38158;53.338;6.514;2023-04-15T15:26:46;8.00;99.90
52181;DHT22;38158;53.338;6.514;2023-04-15T15:29:12;8.40;99.90
52181;DHT22;38158;53.338;6.514;2023-04-15T15:31:37;7.90;99.90
52181;DHT22;38158;53.338;6.514;2023-04-15T15:34:03;7.90;99.90
52181;DHT22;38158;53.338;6.514;2023-04-15T15:36:29;7.90;99.90
52181;DHT22;38158;53.338;6.514;2023-04-15T15:38:56;7.90;99.90
52181;DHT22;38158;53.338;6.514;2023-04-15T15:41:22;8.30;99.90
52181;DHT22;38158;53.338;6.514;2023-04-15T15:43:48;7.80;99.90
52181;DHT22;38158;53.338;6.514;2023-04-15T15:46:14;7.80;99.90
52181;DHT22;38158;53.338;6.514;2023-04-15T15:48:39;7.80;99.90
52181;DHT22;38158;53.338;6.514;2023-04-15T15:51:05;7.80;99.90
52181;DHT22;38158;53.338;6.514;2023-04-15T15:53:31;7.80;99.90
52181;DHT22;38158;53.338;6.514;2023-04-15T15:55:56;7.80;99.90
52181;DHT22;38158;53.338;6.514;2023-04-15T15:58:22;7.80;99.90
52181;DHT22;38158;53.338;6.514;2023-04-15T16:00:48;7.80;99.90
52181;DHT22;38158;53.338;6.514;2023-04-15T16:03:14;7.80;99.90
52181;DHT22;38158;53.338;6.514;2023-04-15T16:05:40;7.80;99.90
52181;DHT22;38158;53.338;6.514;2023-04-15T16:08:05;7.70;99.90